地図

経路データ

SID SEASON NUMBER BASIN SUBBASIN NAME ISO_TIME NATURE LAT LON WMO_WIND WMO_PRES WMO_AGENCY TRACK_TYPE DIST2LAND LANDFALL IFLAG USA_AGENCY USA_ATCF_ID USA_LAT USA_LON USA_RECORD USA_STATUS USA_WIND USA_PRES USA_SSHS USA_R34_NE USA_R34_SE USA_R34_SW USA_R34_NW USA_R50_NE USA_R50_SE USA_R50_SW USA_R50_NW USA_R64_NE USA_R64_SE USA_R64_SW USA_R64_NW USA_POCI USA_ROCI USA_RMW USA_EYE TOKYO_LAT TOKYO_LON TOKYO_GRADE TOKYO_WIND TOKYO_PRES TOKYO_R50_DIR TOKYO_R50_LONG TOKYO_R50_SHORT TOKYO_R30_DIR TOKYO_R30_LONG TOKYO_R30_SHORT TOKYO_LAND CMA_LAT CMA_LON CMA_CAT CMA_WIND CMA_PRES HKO_LAT HKO_LON HKO_CAT HKO_WIND HKO_PRES NEWDELHI_LAT NEWDELHI_LON NEWDELHI_GRADE NEWDELHI_WIND NEWDELHI_PRES NEWDELHI_CI NEWDELHI_DP NEWDELHI_POCI REUNION_LAT REUNION_LON REUNION_TYPE REUNION_WIND REUNION_PRES REUNION_TNUM REUNION_CI REUNION_RMW REUNION_R34_NE REUNION_R34_SE REUNION_R34_SW REUNION_R34_NW REUNION_R50_NE REUNION_R50_SE REUNION_R50_SW REUNION_R50_NW REUNION_R64_NE REUNION_R64_SE REUNION_R64_SW REUNION_R64_NW BOM_LAT BOM_LON BOM_TYPE BOM_WIND BOM_PRES BOM_TNUM BOM_CI BOM_RMW BOM_R34_NE BOM_R34_SE BOM_R34_SW BOM_R34_NW BOM_R50_NE BOM_R50_SE BOM_R50_SW BOM_R50_NW BOM_R64_NE BOM_R64_SE BOM_R64_SW BOM_R64_NW BOM_ROCI BOM_POCI BOM_EYE BOM_POS_METHOD BOM_PRES_METHOD NADI_LAT NADI_LON NADI_CAT NADI_WIND NADI_PRES WELLINGTON_LAT WELLINGTON_LON WELLINGTON_WIND WELLINGTON_PRES DS824_LAT DS824_LON DS824_STAGE DS824_WIND DS824_PRES TD9636_LAT TD9636_LON TD9636_STAGE TD9636_WIND TD9636_PRES TD9635_LAT TD9635_LON TD9635_WIND TD9635_PRES TD9635_ROCI NEUMANN_LAT NEUMANN_LON NEUMANN_CLASS NEUMANN_WIND NEUMANN_PRES MLC_LAT MLC_LON MLC_CLASS MLC_WIND MLC_PRES USA_GUST BOM_GUST BOM_GUST_PER REUNION_GUST REUNION_GUST_PER USA_SEAHGT USA_SEARAD_NE USA_SEARAD_SE USA_SEARAD_SW USA_SEARAD_NW STORM_SPEED STORM_DIR
1948070S15166 1948 22 SP MM NOT_NAMED 1948-03-10 00:00:00 TS -14.7000 165.600 main 97 97 O________OO___ jtwc_sh SH171948 -14.7000 165.600 -1 -14.7000 165.600 TC -14.7000 165.600 4 3 224
1948070S15166 1948 22 SP MM NOT_NAMED 1948-03-10 03:00:00 TS -14.7980 165.499 main 107 107 P________PP___ SH171948 -14.7900 165.493 -1 -14.7900 165.493 TC -14.8141 165.513 4 3 221
1948070S15166 1948 22 SP MM NOT_NAMED 1948-03-10 06:00:00 TS -14.9108 165.410 main 118 118 O________OP___ jtwc_sh SH171948 -14.9000 165.400 -1 -14.9000 165.400 TC -14.9325 165.430 4 3 211
1948070S15166 1948 22 SP MM NOT_NAMED 1948-03-10 09:00:00 TS -15.0482 165.343 main 130 130 P________PP___ SH171948 -15.0425 165.335 -1 -15.0425 165.335 TC -15.0597 165.358 4 3 199
1948070S15166 1948 22 SP MM NOT_NAMED 1948-03-10 12:00:00 TS -15.2000 165.300 main 136 136 O________OO___ jtwc_sh SH171948 -15.2000 165.300 -1 -15.2000 165.300 TC -15.2000 165.300 4 3 191
1948070S15166 1948 22 SP MM NOT_NAMED 1948-03-10 15:00:00 TS -15.3517 165.287 main 139 139 P________PP___ SH171948 -15.3500 165.300 -1 -15.3500 165.300 TC -15.3550 165.261 4 3 0
1948070S15166 1948 22 SP MM NOT_NAMED 1948-03-10 18:00:00 TS -15.5050 165.278 main 139 139 O________OP___ jtwc_sh SH171948 -15.5000 165.300 -1 -15.5000 165.300 TC -15.5150 165.235 4 3 187
1948070S15166 1948 22 SP MM NOT_NAMED 1948-03-10 21:00:00 TS -15.6658 165.239 main 153 153 P________PP___ SH171948 -15.6650 165.250 -1 -15.6650 165.250 TC -15.6675 165.217 4 3 196
1948070S15166 1948 22 SP MM NOT_NAMED 1948-03-11 00:00:00 TS -15.8000 165.200 main 156 156 O________OO___ jtwc_sh SH171948 -15.8000 165.200 -1 -15.8000 165.200 TC -15.8000 165.200 4 2 193
1948070S15166 1948 22 SP MM NOT_NAMED 1948-03-11 03:00:00 TS -15.8665 165.192 main 160 160 P________PP___ SH171948 -15.8575 165.200 -1 -15.8575 165.200 TC -15.8844 165.175 4 1 191
1948070S15166 1948 22 SP MM NOT_NAMED 1948-03-11 06:00:00 TS -15.9167 165.183 main 160 160 O________OP___ jtwc_sh SH171948 -15.9000 165.200 -1 -15.9000 165.200 TC -15.9500 165.150 4 1 200
1948070S15166 1948 22 SP MM NOT_NAMED 1948-03-11 09:00:00 TS -15.9952 165.142 main 174 174 P________PP___ SH171948 -15.9850 165.150 -1 -15.9850 165.150 TC -16.0156 165.125 4 2 202
1948070S15166 1948 22 SP MM NOT_NAMED 1948-03-11 12:00:00 TS -16.1000 165.100 main 178 178 O________OO___ jtwc_sh SH171948 -16.1000 165.100 -1 -16.1000 165.100 TC -16.1000 165.100 4 2 191
1948070S15166 1948 22 SP MM NOT_NAMED 1948-03-11 15:00:00 TS -16.2378 165.093 main 183 183 P________PP___ SH171948 -16.2425 165.100 -1 -16.2425 165.100 TC -16.2284 165.079 4 3 185
1948070S15166 1948 22 SP MM NOT_NAMED 1948-03-11 18:00:00 TS -16.3925 165.086 main 195 195 O________OP___ jtwc_sh SH171948 -16.4000 165.100 -1 -16.4000 165.100 TC -16.3775 165.057 4 3 188
1948070S15166 1948 22 SP MM NOT_NAMED 1948-03-11 21:00:00 TS -16.5459 165.049 main 210 210 P________PP___ SH171948 -16.5500 165.058 -1 -16.5500 165.058 TC -16.5378 165.032 4 3 194
1948070S15166 1948 22 SP MM NOT_NAMED 1948-03-12 00:00:00 TS -16.7000 165.000 main 222 222 O________OO___ jtwc_sh SH171948 -16.7000 165.000 -1 -16.7000 165.000 TC -16.7000 165.000 4 3 197
1948070S15166 1948 22 SP MM NOT_NAMED 1948-03-12 03:00:00 TS -16.8527 164.951 main 234 234 P________PP___ SH171948 -16.8500 164.950 -1 -16.8500 164.950 TC -16.8581 164.953 4 3 197
1948070S15166 1948 22 SP MM NOT_NAMED 1948-03-12 06:00:00 TS -17.0050 164.900 main 249 249 O________OP___ jtwc_sh SH171948 -17.0000 164.900 -1 -17.0000 164.900 TC -17.0150 164.900 4 3 197
1948070S15166 1948 22 SP MM NOT_NAMED 1948-03-12 09:00:00 TS -17.1648 164.849 main 271 271 P________PP___ SH171948 -17.1650 164.850 -1 -17.1650 164.850 TC -17.1644 164.847 4 3 199
1948070S15166 1948 22 SP MM NOT_NAMED 1948-03-12 12:00:00 TS -17.3000 164.800 main 278 278 O________OO___ jtwc_sh SH171948 -17.3000 164.800 -1 -17.3000 164.800 TC -17.3000 164.800 4 2 206
1948070S15166 1948 22 SP MM NOT_NAMED 1948-03-12 15:00:00 TS -17.3525 164.754 main 284 284 P________PP___ SH171948 -17.3500 164.742 -1 -17.3500 164.742 TC -17.3575 164.776 4 1 218
1948070S15166 1948 22 SP MM NOT_NAMED 1948-03-12 18:00:00 TS -17.4033 164.719 main 293 293 O________OP___ jtwc_sh SH171948 -17.4000 164.700 -1 -17.4000 164.700 TC -17.4100 164.757 4 2 195
1948070S15166 1948 22 SP MM NOT_NAMED 1948-03-12 21:00:00 TS -17.5008 164.712 main 299 286 P________PP___ SH171948 -17.4975 164.700 -1 -17.4975 164.700 TC -17.5075 164.735 4 3 0
1948070S15166 1948 22 SP MM NOT_NAMED 1948-03-13 00:00:00 TS -17.7000 164.700 main 286 254 O________OO___ jtwc_sh SH171948 -17.7000 164.700 -1 -17.7000 164.700 TC -17.7000 164.700 4 6 185
1948070S15166 1948 22 SP MM NOT_NAMED 1948-03-13 03:00:00 TS -18.0468 164.650 main 251 197 P________PP___ SH171948 -18.0475 164.665 -1 -18.0475 164.665 TC -18.0454 164.620 4 8 189
1948070S15166 1948 22 SP MM NOT_NAMED 1948-03-13 06:00:00 TS -18.4959 164.576 main 197 140 O________OP___ jtwc_sh SH171948 -18.5000 164.600 -1 -18.5000 164.600 TC -18.4876 164.528 4 10 190
1948070S15166 1948 22 SP MM NOT_NAMED 1948-03-13 09:00:00 TS -18.9904 164.478 main 140 84 P________PP___ SH171948 -18.9925 164.493 -1 -18.9925 164.493 TC -18.9860 164.448 4 10 189
1948070S15166 1948 22 SP MM NOT_NAMED 1948-03-13 12:00:00 TS -19.5000 164.400 main 84 44 O________OO___ jtwc_sh SH171948 -19.5000 164.400 -1 -19.5000 164.400 TC -19.5000 164.400 4 9 187
1948070S15166 1948 22 SP MM NOT_NAMED 1948-03-13 15:00:00 TS -19.9259 164.352 main 44 0 P________PP___ SH171948 -19.9500 164.370 -1 -19.9500 164.370 TC -19.8778 164.316 4 9 183
1948070S15166 1948 22 SP MM NOT_NAMED 1948-03-13 18:00:00 TS -20.3587 164.361 main 0 0 O________OP___ jtwc_sh SH171948 -20.4000 164.400 -1 -20.4000 164.400 TC -20.2762 164.282 4 9 178
1948070S15166 1948 22 SP MM NOT_NAMED 1948-03-13 21:00:00 TS -20.8037 164.398 main 0 0 P________PP___ SH171948 -20.8247 164.419 -1 -20.8247 164.419 TC -20.7615 164.356 4 11 168
1948070S15166 1948 22 SP MM NOT_NAMED 1948-03-14 00:00:00 TS -21.4000 164.600 main 31 23 O________OO___ jtwc_sh SH171948 -21.4000 164.600 -1 -21.4000 164.600 TC -21.4000 164.600 4 16 158
1948070S15166 1948 22 SP MM NOT_NAMED 1948-03-14 03:00:00 TS -22.2866 165.044 main 84 78 P________PP___ SH171948 -22.2600 165.045 -1 -22.2600 165.045 TC -22.3398 165.042 4 22 153
1948070S15166 1948 22 SP MM NOT_NAMED 1948-03-14 06:00:00 TS -23.3399 165.689 main 132 132 O________OP___ jtwc_sh SH171948 -23.3000 165.700 -1 -23.3000 165.700 TC -23.4196 165.666 4 25 150
1948070S15166 1948 22 SP MM NOT_NAMED 1948-03-14 09:00:00 TS -24.4527 166.423 main 236 235 P________PP___ SH171948 -24.4218 166.418 -1 -24.4218 166.418 TC -24.5145 166.433 4 26 146
1948070S15166 1948 22 SP MM NOT_NAMED 1948-03-14 12:00:00 TS -25.5000 167.300 main 348 348 O________OO___ jtwc_sh SH171948 -25.5000 167.300 -1 -25.5000 167.300 TC -25.5000 167.300 4 26 138
1948070S15166 1948 22 SP MM NOT_NAMED 1948-03-14 15:00:00 TS -26.3764 168.367 main 472 472 P________PP___ SH171948 -26.4133 168.392 -1 -26.4133 168.392 TC -26.3025 168.319 4 25 129
1948070S15166 1948 22 SP MM NOT_NAMED 1948-03-14 18:00:00 TS -27.0549 169.467 main 587 587 O________OP___ jtwc_sh SH171948 -27.1000 169.500 -1 -27.1000 169.500 TC -26.9646 169.402 4 22 122
1948070S15166 1948 22 SP MM NOT_NAMED 1948-03-14 21:00:00 TS -27.5361 170.466 main 675 675 P________PP___ SH171948 -27.5700 170.494 -1 -27.5700 170.494 TC -27.4684 170.409 4 17 116
1948070S15166 1948 22 SP MM NOT_NAMED 1948-03-15 00:00:00 TS -27.8000 171.200 main 742 742 O________OO___ jtwc_sh SH171948 -27.8000 171.200 -1 -27.8000 171.200 TC -27.8000 171.200 4 10 111
1948070S15166 1948 22 SP MM NOT_NAMED 1948-03-15 03:00:00 TS -27.8880 171.500 main 743 742 P________PP___ SH171948 -27.8516 171.456 -1 -27.8516 171.456 TC -27.9607 171.589 4 3 99
1948070S15166 1948 22 SP MM NOT_NAMED 1948-03-15 06:00:00 TS -27.8558 171.582 main 742 742 O________OP___ jtwc_sh SH171948 -27.8000 171.500 -1 -27.8000 171.500 TC -27.9674 171.746 4 2 71
1948070S15166 1948 22 SP MM NOT_NAMED 1948-03-15 09:00:00 TS -27.8302 171.693 main 752 751 P________PP___ SH171948 -27.8000 171.650 -1 -27.8000 171.650 TC -27.8906 171.780 4 2 74
1948070S15166 1948 22 SP MM NOT_NAMED 1948-03-15 12:00:00 TS -27.8000 171.800 main 751 750 O________OO___ jtwc_sh SH171948 -27.8000 171.800 -1 -27.8000 171.800 TC -27.8000 171.800 4 2 82
1948070S15166 1948 22 SP MM NOT_NAMED 1948-03-15 15:00:00 TS -27.8000 171.951 main 749 748 P________PP___ SH171948 -27.8000 171.943 -1 -27.8000 171.943 TC -27.8000 171.968 4 3 90
1948070S15166 1948 22 SP MM NOT_NAMED 1948-03-15 18:00:00 TS -27.8000 172.114 main 748 748 O________OP___ jtwc_sh SH171948 -27.8000 172.100 -1 -27.8000 172.100 TC -27.8000 172.143 4 3 90
1948070S15166 1948 22 SP MM NOT_NAMED 1948-03-15 21:00:00 TS -27.8000 172.307 main 748 747 P________PP___ SH171948 -27.8000 172.300 -1 -27.8000 172.300 TC -27.8000 172.321 4 3 90
1948070S15166 1948 22 SP MM NOT_NAMED 1948-03-16 00:00:00 TS -27.8000 172.500 main 747 747 O________OO___ jtwc_sh SH171948 -27.8000 172.500 -1 -27.8000 172.500 TC -27.8000 172.500 4 3 91
1948070S15166 1948 22 SP MM NOT_NAMED 1948-03-16 03:00:00 TS -27.8040 172.661 main 747 747 P________PP___ SH171948 -27.7999 172.650 -1 -27.7999 172.650 TC -27.8122 172.683 4 3 92
1948070S15166 1948 22 SP MM NOT_NAMED 1948-03-16 06:00:00 TS -27.8075 172.822 main 747 747 O________OP___ jtwc_sh SH171948 -27.8000 172.800 -1 -27.8000 172.800 TC -27.8225 172.865 4 3 92
1948070S15166 1948 22 SP MM NOT_NAMED 1948-03-16 09:00:00 TS -27.8122 173.013 main 747 747 P________PP___ SH171948 -27.8075 173.000 -1 -27.8075 173.000 TC -27.8216 173.039 4 3 89
1948070S15166 1948 22 SP MM NOT_NAMED 1948-03-16 12:00:00 TS -27.8000 173.200 main 747 747 O________OO___ jtwc_sh SH171948 -27.8000 173.200 -1 -27.8000 173.200 TC -27.8000 173.200 4 3 79
1948070S15166 1948 22 SP MM NOT_NAMED 1948-03-16 15:00:00 TS -27.7561 173.355 main 748 748 P________PP___ SH171948 -27.7650 173.365 -1 -27.7650 173.365 TC -27.7383 173.335 4 3 66
1948070S15166 1948 22 SP MM NOT_NAMED 1948-03-16 18:00:00 TS -27.6858 173.486 main 760 760 O________OP___ jtwc_sh SH171948 -27.7000 173.500 -1 -27.7000 173.500 TC -27.6573 173.458 4 3 51
1948070S15166 1948 22 SP MM NOT_NAMED 1948-03-16 21:00:00 TS -27.5859 173.592 main 771 771 P________PP___ SH171948 -27.5925 173.600 -1 -27.5925 173.600 TC -27.5727 173.576 4 3 46
1948070S15166 1948 22 SP MM NOT_NAMED 1948-03-17 00:00:00 TS -27.5000 173.700 main 783 783 O________OO___ jtwc_sh SH171948 -27.5000 173.700 -1 -27.5000 173.700 TC -27.5000 173.700 4 2 65
1948070S15166 1948 22 SP MM NOT_NAMED 1948-03-17 03:00:00 TS -27.4819 173.845 main 784 784 P________PP___ SH171948 -27.4925 173.842 -1 -27.4925 173.842 TC -27.4607 173.851 4 3 85
1948070S15166 1948 22 SP MM NOT_NAMED 1948-03-17 06:00:00 TS -27.4784 174.002 main 786 786 O________OP___ jtwc_sh SH171948 -27.5000 174.000 -1 -27.5000 174.000 TC -27.4351 174.007 4 3 81
1948070S15166 1948 22 SP MM NOT_NAMED 1948-03-17 09:00:00 TS -27.4390 174.158 main 800 800 P________PP___ SH171948 -27.4500 174.158 -1 -27.4500 174.158 TC -27.4169 174.160 4 3 74
1948070S15166 1948 22 SP MM NOT_NAMED 1948-03-17 12:00:00 TS -27.4000 174.300 main 801 801 O________OO___ jtwc_sh SH171948 -27.4000 174.300 -1 -27.4000 174.300 TC -27.4000 174.300 4 2 78
1948070S15166 1948 22 SP MM NOT_NAMED 1948-03-17 15:00:00 TS -27.3916 174.410 main 803 803 P________PP___ SH171948 -27.4000 174.407 -1 -27.4000 174.407 TC -27.3749 174.414 4 2 85
1948070S15166 1948 22 SP MM NOT_NAMED 1948-03-17 18:00:00 TS -27.3833 174.505 main 804 804 O________OP___ jtwc_sh SH171948 -27.4000 174.500 -1 -27.4000 174.500 TC -27.3499 174.515 4 2 74
1948070S15166 1948 22 SP MM NOT_NAMED 1948-03-17 21:00:00 TS -27.3416 174.603 main 817 817 P________PP___ SH171948 -27.3500 174.600 -1 -27.3500 174.600 TC -27.3249 174.608 4 2 64
1948070S15166 1948 22 SP MM NOT_NAMED 1948-03-18 00:00:00 TS -27.3000 174.700 main 819 819 O________OO___ jtwc_sh SH171948 -27.3000 174.700 -1 -27.3000 174.700 TC -27.3000 174.700 4 2 74
1948070S15166 1948 22 SP MM NOT_NAMED 1948-03-18 03:00:00 TS -27.2943 174.795 main 821 821 P________PP___ SH171948 -27.3000 174.800 -1 -27.3000 174.800 TC -27.2830 174.784 4 2 86
1948070S15166 1948 22 SP MM NOT_NAMED 1948-03-18 06:00:00 TS -27.2883 174.890 main 823 823 O________OP___ jtwc_sh SH171948 -27.3000 174.900 -1 -27.3000 174.900 TC -27.2648 174.870 4 2 76
1948070S15166 1948 22 SP MM NOT_NAMED 1948-03-18 09:00:00 TS -27.2514 174.985 main 825 825 P________PP___ SH171948 -27.2575 174.993 -1 -27.2575 174.993 TC -27.2392 174.971 4 2 65
1948070S15166 1948 22 SP MM NOT_NAMED 1948-03-18 12:00:00 TS -27.2000 175.100 main 838 838 O________OO___ jtwc_sh SH171948 -27.2000 175.100 -1 -27.2000 175.100 TC -27.2000 175.100 4 2 66
1948070S15166 1948 22 SP MM NOT_NAMED 1948-03-18 15:00:00 TS -27.1525 175.240 main 840 840 P________PP___ SH171948 -27.1574 175.227 -1 -27.1574 175.227 TC -27.1427 175.265 4 3 69
1948070S15166 1948 22 SP MM NOT_NAMED 1948-03-18 18:00:00 TS -27.0901 175.420 main 856 856 O________OP___ jtwc_sh SH171948 -27.1000 175.400 -1 -27.1000 175.400 TC -27.0704 175.460 4 4 68
1948070S15166 1948 22 SP MM NOT_NAMED 1948-03-18 21:00:00 TS -27.0027 175.647 main 872 872 P________PP___ SH171948 -27.0101 175.633 -1 -27.0101 175.633 TC -26.9879 175.675 4 5 66
1948070S15166 1948 22 SP MM NOT_NAMED 1948-03-19 00:00:00 TS -26.9000 175.900 main 891 O________OO___ jtwc_sh SH171948 -26.9000 175.900 -1 -26.9000 175.900 TC -26.9000 175.900 4 5 66

デジタル台風データ・検索

IBTrACS Databaseについて

本データベースは、米国NOAAが公開する1842年以降の世界の熱帯低気圧のベストトラックデータアーカイブInternational Best Track Archive for Climate Stewardship (IBTrACS)を、ウェブで閲覧しやすい形式に変換したものです。

最終更新日:2021-11-26